Time;durP1;ratioP1;P1;durP2;ratioP2;P2;SDS_P1;SDS_P2;PMS_P1;PMS_P2;Temp;Humidity;BMP_temperature;BMP_pressure;BME280_temperature;BME280_humidity;BME280_pressure;Samples;Min_cycle;Max_cycle;Signal;HPM_P1;HPM_P2
2021/01/02 00:01:43;;;;;;;9.73;4.57;;;20.30;38.70;;;;;;4999688;28;20049;-74
2021/01/02 00:04:23;;;;;;;13.95;7.10;;;20.20;38.70;;;;;;4990436;28;20042;-74
2021/01/02 00:06:54;;;;;;;14.57;6.20;;;20.30;38.70;;;;;;4994109;28;20058;-74
2021/01/02 00:09:21;;;;;;;15.25;7.57;;;20.20;38.60;;;;;;4993023;28;20034;-74
2021/01/02 00:11:55;;;;;;;19.58;10.25;;;20.20;38.60;;;;;;4990763;28;20030;-74
2021/01/02 00:14:39;;;;;;;16.67;9.07;;;20.20;38.60;;;;;;4980276;28;20438;-74
2021/01/02 00:17:30;;;;;;;18.05;9.07;;;20.20;38.60;;;;;;4988145;28;20061;-74
2021/01/02 00:20:14;;;;;;;20.55;9.95;;;20.20;38.60;;;;;;5005713;28;20030;-74
2021/01/02 00:22:41;;;;;;;18.98;10.15;;;20.20;38.60;;;;;;5024047;28;20044;-69
2021/01/02 00:25:15;;;;;;;22.33;10.20;;;20.20;38.60;;;;;;5076232;28;20024;-68
2021/01/02 00:27:45;;;;;;;17.33;6.88;;;20.20;39.30;;;;;;5077259;28;20028;-68
2021/01/02 00:30:52;;;;;;;16.00;8.07;;;20.10;38.60;;;;;;5092743;28;20039;-69
2021/01/02 00:33:19;;;;;;;17.83;8.40;;;20.10;38.60;;;;;;4993422;28;20049;-69
2021/01/02 00:35:48;;;;;;;2.85;1.23;;;20.10;38.70;;;;;;4976142;28;20426;-69
2021/01/02 00:38:14;;;;;;;16.20;7.95;;;20.10;38.80;;;;;;4993378;28;20177;-69
2021/01/02 00:40:40;;;;;;;17.70;8.35;;;20.10;38.80;;;;;;4973055;28;20062;-69
2021/01/02 00:43:06;;;;;;;19.33;9.07;;;20.00;38.80;;;;;;4993505;28;20050;-69
2021/01/02 00:45:32;;;;;;;12.93;5.97;;;20.00;38.90;;;;;;4989436;28;20387;-68
2021/01/02 00:47:57;;;;;;;12.07;5.82;;;20.00;38.90;;;;;;4993016;28;20125;-68
2021/01/02 00:50:24;;;;;;;18.85;9.50;;;20.00;38.90;;;;;;4990546;28;20117;-68
2021/01/02 00:53:08;;;;;;;14.50;5.68;;;20.00;38.90;;;;;;5008393;28;20463;-68
2021/01/02 00:55:44;;;;;;;11.38;4.38;;;20.00;38.90;;;;;;4985921;28;20030;-68
2021/01/02 00:58:21;;;;;;;9.90;5.60;;;20.00;38.90;;;;;;4989341;28;20520;-68
2021/01/02 01:01:00;;;;;;;4.38;2.33;;;20.00;38.80;;;;;;4993192;28;20525;-68
2021/01/02 01:03:40;;;;;;;7.53;3.53;;;20.00;38.80;;;;;;4990198;28;20046;-68
2021/01/02 01:06:06;;;;;;;14.88;7.30;;;19.90;38.80;;;;;;5005212;28;20034;-68
2021/01/02 01:08:32;;;;;;;12.15;5.53;;;19.90;38.90;;;;;;4976331;28;20165;-69
2021/01/02 01:10:58;;;;;;;14.98;7.22;;;19.90;38.90;;;;;;5084425;28;20127;-68
2021/01/02 01:13:24;;;;;;;21.40;10.18;;;19.90;38.90;;;;;;5059506;28;20028;-68
2021/01/02 01:15:50;;;;;;;17.38;9.15;;;19.90;38.90;;;;;;5075999;28;20032;-68
2021/01/02 01:18:26;;;;;;;21.48;9.52;;;19.90;38.90;;;;;;5060076;28;20024;-68
2021/01/02 01:20:59;;;;;;;19.58;8.50;;;19.90;38.90;;;;;;5071185;28;20119;-68
2021/01/02 01:23:26;;;;;;;17.98;8.90;;;19.90;38.90;;;;;;5116302;27;20576;-68
2021/01/02 01:26:30;;;;;;;16.50;7.32;;;19.90;38.90;;;;;;5093734;28;20060;-69
2021/01/02 01:28:56;;;;;;;14.02;7.18;;;19.80;38.90;;;;;;5059448;28;20530;-68
2021/01/02 01:31:22;;;;;;;19.33;8.07;;;19.80;38.90;;;;;;5058560;28;20032;-69
2021/01/02 01:33:49;;;;;;;15.68;8.93;;;19.80;39.50;;;;;;5107942;28;20031;-69
2021/01/02 01:36:21;;;;;;;16.02;7.93;;;19.80;38.90;;;;;;5069273;28;20016;-69
2021/01/02 01:38:54;;;;;;;18.45;9.00;;;19.80;38.80;;;;;;5087937;28;20394;-68
2021/01/02 01:41:32;;;;;;;19.05;7.97;;;19.80;38.90;;;;;;5059449;28;20070;-68
2021/01/02 01:44:13;;;;;;;16.58;7.68;;;19.80;38.80;;;;;;5091618;28;20027;-74
2021/01/02 01:46:52;;;;;;;18.02;7.38;;;19.80;38.90;;;;;;5082087;28;20070;-75
2021/01/02 01:49:44;;;;;;;16.38;8.38;;;19.80;38.90;;;;;;5093251;28;20028;-68
2021/01/02 01:52:14;;;;;;;9.68;5.22;;;19.80;38.80;;;;;;5090543;28;20024;-68
2021/01/02 01:54:50;;;;;;;18.48;8.32;;;19.80;38.80;;;;;;5075756;28;20036;-68
2021/01/02 01:57:28;;;;;;;14.60;7.95;;;19.80;38.80;;;;;;5094180;28;20024;-68
2021/01/02 01:59:56;;;;;;;19.58;9.07;;;19.80;38.80;;;;;;5075153;28;20032;-68
2021/01/02 02:02:47;;;;;;;15.38;5.63;;;19.80;38.80;;;;;;5089069;28;20025;-68
2021/01/02 02:05:23;;;;;;;17.98;8.82;;;19.80;38.80;;;;;;5084566;28;20099;-68
2021/01/02 02:08:00;;;;;;;;;;;19.80;38.80;;;;;;5075292;28;20539;-69
2021/01/02 02:10:30;;;;;;;15.13;6.32;;;19.80;38.80;;;;;;5093418;28;20020;-69
2021/01/02 02:13:15;;;;;;;12.10;4.57;;;19.70;38.70;;;;;;5075432;28;20044;-68
2021/01/02 02:15:59;;;;;;;16.77;7.03;;;19.70;38.70;;;;;;5093774;28;20021;-68
2021/01/02 02:18:30;;;;;;;14.25;7.03;;;19.70;38.90;;;;;;5109079;28;20028;-73
2021/01/02 02:20:57;;;;;;;12.27;5.88;;;19.70;38.90;;;;;;5092464;28;20036;-73
2021/01/02 02:23:26;;;;;;;16.45;8.38;;;19.70;38.90;;;;;;5092876;28;20047;-73
2021/01/02 02:26:27;;;;;;;17.27;7.80;;;19.70;39.00;;;;;;5091070;28;20072;-73
2021/01/02 02:28:52;;;;;;;11.95;4.63;;;19.70;39.00;;;;;;5108556;28;20058;-73
2021/01/02 02:31:18;;;;;;;18.75;7.97;;;19.70;39.00;;;;;;5093609;28;20442;-74
2021/01/02 02:33:55;;;;;;;11.88;4.68;;;19.70;39.00;;;;;;5091182;28;20038;-74
2021/01/02 02:36:21;;;;;;;6.50;0.90;;;19.70;39.00;;;;;;5092698;28;20016;-74
2021/01/02 02:38:46;;;;;;;0.60;0.55;;;19.60;38.90;;;;;;5092285;28;20031;-74
2021/01/02 02:41:12;;;;;;;4.35;0.40;;;19.60;39.00;;;;;;5093150;28;20437;-74
2021/01/02 02:43:39;;;;;;;1.42;0.60;;;19.60;39.10;;;;;;5091979;28;20118;-73
2021/01/02 02:46:07;;;;;;;0.60;0.32;;;19.60;39.30;;;;;;5108637;28;20024;-73
2021/01/02 02:48:32;;;;;;;0.55;0.55;;;19.60;39.40;;;;;;5074494;28;20027;-73
2021/01/02 02:50:58;;;;;;;0.30;0.30;;;19.60;39.40;;;;;;5057350;28;20028;-73
2021/01/02 02:53:23;;;;;;;1.00;0.70;;;19.60;39.40;;;;;;5091369;28;20024;-73
2021/01/02 02:55:49;;;;;;;0.20;0.20;;;19.50;39.30;;;;;;5091637;28;20103;-73
2021/01/02 02:58:14;;;;;;;0.63;0.63;;;19.50;39.30;;;;;;5092682;28;20051;-73
2021/01/02 03:00:40;;;;;;;0.82;0.65;;;19.50;39.30;;;;;;5093018;28;20028;-73
2021/01/02 03:03:10;;;;;;;0.28;0.28;;;19.50;39.30;;;;;;5108592;28;20040;-73
2021/01/02 03:05:38;;;;;;;0.40;0.30;;;19.50;39.30;;;;;;5107603;28;20453;-73
2021/01/02 03:08:04;;;;;;;2.45;0.60;;;19.50;39.30;;;;;;5107968;28;20016;-73
2021/01/02 03:10:30;;;;;;;0.65;0.65;;;19.50;39.30;;;;;;5056966;28;20040;-73
2021/01/02 03:12:58;;;;;;;1.90;0.60;;;19.50;39.30;;;;;;5092675;28;20020;-73
2021/01/02 03:15:26;;;;;;;0.50;0.50;;;19.50;39.20;;;;;;5092589;28;20039;-73
2021/01/02 03:18:10;;;;;;;0.30;0.30;;;19.50;39.20;;;;;;5074218;28;20114;-73
2021/01/02 03:20:35;;;;;;;0.32;0.30;;;19.50;39.10;;;;;;5073424;28;20036;-73
2021/01/02 03:23:01;;;;;;;1.25;0.40;;;19.50;39.10;;;;;;5092070;28;20093;-73
2021/01/02 03:25:27;;;;;;;0.43;0.43;;;19.50;39.00;;;;;;5073618;28;20063;-73
2021/01/02 03:27:56;;;;;;;0.63;0.30;;;19.50;39.00;;;;;;5092038;28;20024;-72
2021/01/02 03:30:22;;;;;;;0.30;0.30;;;19.50;39.00;;;;;;5107177;28;20499;-73
2021/01/02 03:32:47;;;;;;;0.77;0.77;;;19.50;39.00;;;;;;5091762;28;20058;-74
2021/01/02 03:35:15;;;;;;;0.65;0.52;;;19.50;39.00;;;;;;5088759;28;20457;-74
2021/01/02 03:37:41;;;;;;;0.45;0.45;;;19.50;39.00;;;;;;5086477;28;20480;-74
2021/01/02 03:40:11;;;;;;;0.10;0.10;;;19.50;39.10;;;;;;5066683;28;20043;-75
2021/01/02 03:42:46;;;;;;;2.58;0.70;;;19.50;39.10;;;;;;5074064;28;20049;-75
2021/01/02 03:45:13;;;;;;;2.20;0.82;;;19.50;39.10;;;;;;5092046;28;20395;-74
2021/01/02 03:47:42;;;;;;;1.67;0.65;;;19.50;39.10;;;;;;5107486;28;20036;-75
2021/01/02 03:50:07;;;;;;;0.40;0.40;;;19.50;39.10;;;;;;5089448;28;20024;-74
2021/01/02 03:52:36;;;;;;;1.27;0.65;;;19.50;39.00;;;;;;5090731;28;20028;-74
2021/01/02 03:55:04;;;;;;;0.52;0.20;;;19.50;39.00;;;;;;5074644;28;20519;-74
2021/01/02 03:57:29;;;;;;;0.43;0.40;;;19.50;39.00;;;;;;5075480;28;20036;-73
2021/01/02 03:59:55;;;;;;;0.20;0.20;;;19.50;39.00;;;;;;5095753;28;20496;-74
2021/01/02 04:02:20;;;;;;;0.10;0.10;;;19.50;39.00;;;;;;5077180;28;20518;-74
2021/01/02 04:04:46;;;;;;;0.82;0.82;;;19.50;39.00;;;;;;5095575;28;20062;-74
2021/01/02 04:07:11;;;;;;;0.13;0.13;;;19.50;38.90;;;;;;5094632;28;20031;-73
2021/01/02 04:09:37;;;;;;;0.40;0.35;;;19.50;38.90;;;;;;5111038;28;20047;-74
2021/01/02 04:12:02;;;;;;;0.17;0.17;;;19.40;38.90;;;;;;5095197;28;20085;-74
2021/01/02 04:14:28;;;;;;;0.20;0.20;;;19.40;39.00;;;;;;5077171;28;20181;-74
2021/01/02 04:16:53;;;;;;;0.68;0.68;;;19.40;38.90;;;;;;5095285;28;20031;-74
2021/01/02 04:19:19;;;;;;;1.55;0.85;;;19.40;39.00;;;;;;5110073;28;20032;-75
2021/01/02 04:21:45;;;;;;;0.30;0.30;;;19.40;38.90;;;;;;5094985;28;20047;-75
2021/01/02 04:24:11;;;;;;;0.10;0.10;;;19.40;39.00;;;;;;5077422;28;20024;-75
2021/01/02 04:26:36;;;;;;;0.13;0.13;;;19.40;39.00;;;;;;5095107;28;20031;-75
2021/01/02 04:29:03;;;;;;;0.65;0.65;;;19.40;39.00;;;;;;5075787;28;20169;-74
2021/01/02 04:31:38;;;;;;;1.17;0.70;;;19.40;39.00;;;;;;5095367;28;20467;-74
2021/01/02 04:34:04;;;;;;;;;;;19.40;39.00;;;;;;5111173;28;20016;-74
2021/01/02 04:36:30;;;;;;;1.25;0.30;;;19.40;39.00;;;;;;5095610;28;20022;-74
2021/01/02 04:38:58;;;;;;;0.30;0.30;;;19.40;39.00;;;;;;5094733;28;20510;-69
2021/01/02 04:41:24;;;;;;;0.03;0.03;;;19.40;39.00;;;;;;5094958;28;20113;-69
2021/01/02 04:43:53;;;;;;;1.75;1.20;;;19.30;39.00;;;;;;5095354;28;20119;-69
2021/01/02 04:46:18;;;;;;;0.03;0.03;;;19.40;39.00;;;;;;5095126;28;20492;-69
2021/01/02 04:48:45;;;;;;;0.82;0.57;;;19.30;38.90;;;;;;5094541;28;20039;-69
2021/01/02 04:51:20;;;;;;;2.38;0.85;;;19.30;39.00;;;;;;5092390;28;20027;-69
2021/01/02 04:53:45;;;;;;;0.10;0.10;;;19.30;38.90;;;;;;5094982;28;20445;-69
2021/01/02 04:56:11;;;;;;;3.92;0.30;;;19.30;38.90;;;;;;5076434;28;20051;-69
2021/01/02 04:58:43;;;;;;;0.38;0.38;;;19.40;38.90;;;;;;5094689;28;20068;-69
2021/01/02 05:01:10;;;;;;;0.40;0.40;;;19.40;38.90;;;;;;5109717;28;20039;-69
2021/01/02 05:03:36;;;;;;;2.40;0.77;;;19.40;38.90;;;;;;5093054;28;20058;-69
2021/01/02 05:06:02;;;;;;;3.40;0.20;;;19.30;38.90;;;;;;5109271;28;20028;-70
2021/01/02 05:08:28;;;;;;;0.08;0.08;;;19.40;39.00;;;;;;5108947;28;20032;-69
2021/01/02 05:10:58;;;;;;;0.03;0.03;;;19.30;39.00;;;;;;5110173;28;20126;-69
2021/01/02 05:13:28;;;;;;;0.10;0.10;;;19.40;39.20;;;;;;5075697;28;20054;-68
2021/01/02 05:19:16;;;;;;;0.20;0.20;;;19.40;39.20;;;;;;5093900;28;20482;-69
2021/01/02 05:21:46;;;;;;;0.03;0.03;;;19.40;39.30;;;;;;5075121;28;20047;-69
2021/01/02 05:24:16;;;;;;;0.43;0.40;;;19.40;39.30;;;;;;5058372;28;20094;-68
2021/01/02 05:26:57;;;;;;;0.32;0.32;;;19.30;39.30;;;;;;5093431;28;20411;-69
2021/01/02 05:29:24;;;;;;;0.43;0.43;;;19.30;39.30;;;;;;5075228;28;20028;-69
2021/01/02 05:31:51;;;;;;;0.00;0.00;;;19.30;39.40;;;;;;5109679;28;20406;-69
2021/01/02 05:34:18;;;;;;;0.52;0.40;;;19.30;39.40;;;;;;5092916;28;20032;-69
2021/01/02 05:36:44;;;;;;;0.13;0.13;;;19.30;39.50;;;;;;5075088;28;20036;-68
2021/01/02 05:39:10;;;;;;;0.17;0.17;;;19.30;39.50;;;;;;5060233;28;20387;-69
2021/01/02 05:41:55;;;;;;;0.43;0.43;;;19.30;39.60;;;;;;5074605;28;20044;-69
2021/01/02 05:44:21;;;;;;;0.35;0.35;;;19.30;39.60;;;;;;5075050;28;20464;-69
2021/01/02 05:46:49;;;;;;;0.60;0.60;;;19.30;39.60;;;;;;5075222;28;20120;-69
2021/01/02 05:49:38;;;;;;;3.70;1.10;;;19.30;39.50;;;;;;5075636;28;20020;-69
2021/01/02 05:52:54;;;;;;;0.32;0.32;;;19.30;39.60;;;;;;5108390;28;20105;-69
2021/01/02 05:55:31;;;;;;;0.28;0.28;;;19.30;39.60;;;;;;5090004;28;20056;-69
2021/01/02 05:58:16;;;;;;;0.10;0.10;;;19.30;39.60;;;;;;5090520;28;20499;-69
2021/01/02 06:00:45;;;;;;;0.00;0.00;;;19.30;39.80;;;;;;5058336;28;20399;-69
2021/01/02 06:06:33;;;;;;;0.43;0.43;;;19.20;39.80;;;;;;5092586;28;20466;-69
2021/01/02 06:08:58;;;;;;;0.10;0.00;;;19.20;39.80;;;;;;5092981;28;20062;-69
2021/01/02 06:11:24;;;;;;;0.65;0.35;;;19.20;39.90;;;;;;5074394;28;20036;-69
2021/01/02 06:13:51;;;;;;;1.55;1.27;;;19.30;40.00;;;;;;5070310;28;20028;-69
2021/01/02 06:16:17;;;;;;;0.50;0.47;;;19.20;39.90;;;;;;5092650;28;20031;-69
2021/01/02 06:18:43;;;;;;;0.10;0.10;;;19.20;39.80;;;;;;5092842;28;20014;-69
2021/01/02 06:21:10;;;;;;;0.20;0.20;;;19.20;40.00;;;;;;5092486;28;20032;-69
2021/01/02 06:23:37;;;;;;;1.65;0.47;;;19.20;39.90;;;;;;5074287;28;20473;-69
2021/01/02 06:26:50;;;;;;;0.00;0.00;;;19.30;40.00;;;;;;5092639;28;20526;-69
2021/01/02 06:32:37;;;;;;;1.15;1.05;;;19.30;40.00;;;;;;5092487;28;20534;-70
2021/01/02 06:35:06;;;;;;;2.55;0.25;;;19.30;40.00;;;;;;5057726;28;20019;-69
2021/01/02 06:37:50;;;;;;;0.50;0.50;;;19.30;40.00;;;;;;5093330;28;20107;-69
2021/01/02 06:40:26;;;;;;;1.17;0.45;;;19.30;39.90;;;;;;5091924;28;20522;-69
2021/01/02 06:42:55;;;;;;;0.30;0.30;;;19.40;39.70;;;;;;5074658;28;20016;-69
2021/01/02 06:45:39;;;;;;;0.00;0.00;;;19.50;39.60;;;;;;5073856;28;20039;-69
2021/01/02 06:48:17;;;;;;;2.17;1.10;;;19.50;39.50;;;;;;5092317;28;20024;-69
2021/01/02 06:50:50;;;;;;;0.85;0.30;;;19.60;39.40;;;;;;5092180;28;20395;-69
2021/01/02 06:53:22;;;;;;;3.08;1.85;;;19.70;39.30;;;;;;5073438;28;20415;-69
2021/01/02 06:56:06;;;;;;;3.30;0.60;;;19.80;39.20;;;;;;5088787;28;20020;-69
2021/01/02 06:58:38;;;;;;;4.55;1.95;;;19.90;39.00;;;;;;5090422;28;20507;-69
2021/01/02 07:01:05;;;;;;;0.40;0.22;;;19.90;38.90;;;;;;5092042;28;20024;-69
2021/01/02 07:03:40;;;;;;;0.40;0.40;;;20.00;38.80;;;;;;5092018;28;20016;-69
2021/01/02 07:08:52;;;;;;;0.40;0.40;;;20.20;38.50;;;;;;5091694;28;20032;-69
2021/01/02 07:11:38;;;;;;;0.10;0.10;;;20.30;38.40;;;;;;5073537;28;20032;-69
2021/01/02 07:14:09;;;;;;;0.45;0.45;;;20.30;38.30;;;;;;5057270;28;20110;-68
2021/01/02 07:16:42;;;;;;;0.10;0.10;;;20.40;38.30;;;;;;5090858;28;20103;-68
2021/01/02 07:19:08;;;;;;;2.60;0.47;;;20.30;38.20;;;;;;5091504;28;20436;-69
2021/01/02 07:21:37;;;;;;;1.10;0.68;;;20.40;38.10;;;;;;5057020;28;20048;-68
2021/01/02 07:24:25;;;;;;;0.05;0.05;;;20.40;38.10;;;;;;5091525;28;20034;-69
2021/01/02 07:26:57;;;;;;;0.20;0.10;;;20.40;38.10;;;;;;5097347;28;20036;-69
2021/01/02 07:29:22;;;;;;;0.00;0.00;;;20.40;38.10;;;;;;5073097;28;20024;-69
2021/01/02 07:32:11;;;;;;;0.30;0.30;;;20.40;38.10;;;;;;5079444;28;20526;-69
2021/01/02 07:34:37;;;;;;;0.40;0.28;;;20.40;38.10;;;;;;5096122;28;20433;-69
2021/01/02 07:37:08;;;;;;;0.50;0.50;;;20.40;38.10;;;;;;5098109;28;20047;-69
2021/01/02 07:39:34;;;;;;;1.27;0.57;;;20.40;38.10;;;;;;5050036;28;20123;-74
2021/01/02 07:42:06;;;;;;;0.98;0.43;;;20.50;38.20;;;;;;5061437;28;20103;-74
2021/01/02 07:44:57;;;;;;;0.10;0.10;;;20.50;38.20;;;;;;5096227;28;20051;-75
2021/01/02 07:47:23;;;;;;;2.30;0.57;;;20.40;38.10;;;;;;5094108;28;20121;-73
2021/01/02 07:49:48;;;;;;;0.30;0.30;;;20.50;38.20;;;;;;5095888;28;20021;-73
2021/01/02 07:52:14;;;;;;;0.10;0.10;;;20.50;38.20;;;;;;5112245;28;20437;-75
2021/01/02 07:54:40;;;;;;;0.05;0.05;;;20.50;38.20;;;;;;5094159;28;20028;-74
2021/01/02 07:57:06;;;;;;;0.70;0.63;;;20.50;38.20;;;;;;5094799;28;20081;-75
2021/01/02 07:59:33;;;;;;;0.00;0.00;;;20.50;38.20;;;;;;5093448;28;20040;-73
2021/01/02 08:02:01;;;;;;;0.38;0.38;;;20.50;38.20;;;;;;5095073;28;20501;-74
2021/01/02 08:04:28;;;;;;;1.10;0.82;;;20.50;38.20;;;;;;5076971;28;20368;-73
2021/01/02 08:06:58;;;;;;;0.68;0.68;;;20.60;38.30;;;;;;5077827;28;20036;-73
2021/01/02 08:09:24;;;;;;;0.00;0.00;;;20.60;38.30;;;;;;5092860;28;20060;-73
2021/01/02 08:11:55;;;;;;;0.98;0.47;;;20.60;38.20;;;;;;5109092;28;20059;-73
2021/01/02 08:14:22;;;;;;;1.15;0.65;;;20.60;38.20;;;;;;5088825;28;20028;-73
2021/01/02 08:17:01;;;;;;;0.28;0.17;;;20.70;38.10;;;;;;5075028;28;20051;-73
2021/01/02 08:19:33;;;;;;;0.00;0.00;;;20.70;38.00;;;;;;5093061;28;20036;-73
2021/01/02 08:21:59;;;;;;;0.15;0.15;;;20.70;37.90;;;;;;5065449;28;20135;-73
2021/01/02 08:24:28;;;;;;;0.38;0.20;;;20.80;37.90;;;;;;5054086;28;20032;-73
2021/01/02 08:26:54;;;;;;;0.65;0.65;;;20.80;38.40;;;;;;5055177;28;20496;-73
2021/01/02 08:29:19;;;;;;;0.25;0.22;;;20.90;37.60;;;;;;5052820;28;20047;-73
2021/01/02 08:31:57;;;;;;;0.30;0.30;;;20.90;37.40;;;;;;5053864;28;20498;-73
2021/01/02 08:34:32;;;;;;;1.15;0.32;;;21.00;37.40;;;;;;5066439;28;20025;-68
2021/01/02 08:37:08;;;;;;;1.75;1.15;;;21.10;37.30;;;;;;5050865;28;20041;-69
2021/01/02 08:39:40;;;;;;;1.27;0.75;;;21.10;37.20;;;;;;5053324;28;20064;-68
2021/01/02 08:42:06;;;;;;;1.20;0.55;;;21.20;37.10;;;;;;5051167;28;20465;-68
2021/01/02 08:44:36;;;;;;;0.82;0.80;;;21.20;36.90;;;;;;5052487;28;20036;-68
2021/01/02 08:47:05;;;;;;;0.38;0.30;;;21.20;36.90;;;;;;5086139;28;20447;-68
2021/01/02 08:49:34;;;;;;;0.55;0.20;;;21.30;36.90;;;;;;5054645;28;20025;-68
2021/01/02 08:52:13;;;;;;;0.45;0.40;;;21.30;36.80;;;;;;5033212;28;20532;-68
2021/01/02 08:54:39;;;;;;;0.15;0.15;;;21.40;36.80;;;;;;5016534;28;20155;-68
2021/01/02 08:57:24;;;;;;;0.45;0.35;;;21.40;36.80;;;;;;5044807;28;20056;-74
2021/01/02 08:59:50;;;;;;;0.38;0.32;;;21.40;36.80;;;;;;5052410;28;20025;-74
2021/01/02 09:02:18;;;;;;;1.20;0.43;;;21.40;36.80;;;;;;5086255;28;20017;-72
2021/01/02 09:05:32;;;;;;;0.30;0.30;;;21.40;36.90;;;;;;5053523;28;20037;-75
2021/01/02 09:07:59;;;;;;;0.17;0.17;;;21.40;37.00;;;;;;5034518;28;20052;-74
2021/01/02 09:10:44;;;;;;;0.88;0.70;;;21.30;37.00;;;;;;5051511;28;20394;-75
2021/01/02 09:13:16;;;;;;;0.67;0.67;;;21.30;37.00;;;;;;5052323;28;20037;-72
2021/01/02 09:16:00;;;;;;;0.75;0.65;;;21.30;37.00;;;;;;5034500;28;20029;-73
2021/01/02 09:18:31;;;;;;;0.55;0.35;;;21.30;37.00;;;;;;5051816;28;20045;-73
2021/01/02 09:21:05;;;;;;;0.75;0.25;;;21.40;37.20;;;;;;5052356;28;20041;-74
2021/01/02 09:23:32;;;;;;;0.32;0.32;;;21.30;37.20;;;;;;5051145;28;20087;-73
2021/01/02 09:25:57;;;;;;;0.00;0.00;;;21.30;37.30;;;;;;5033282;28;20045;-73
2021/01/02 09:28:23;;;;;;;0.00;0.00;;;21.30;37.40;;;;;;5028259;28;20493;-74
2021/01/02 09:30:49;;;;;;;1.10;0.40;;;21.30;37.60;;;;;;5050613;28;20028;-74
2021/01/02 09:33:14;;;;;;;0.45;0.20;;;21.30;37.80;;;;;;5033430;28;20167;-74
2021/01/02 09:35:41;;;;;;;2.15;0.82;;;21.20;37.90;;;;;;5051408;28;20044;-74
2021/01/02 09:38:06;;;;;;;0.10;0.10;;;21.30;38.00;;;;;;5052827;28;20049;-74
2021/01/02 09:40:33;;;;;;;0.22;0.22;;;21.30;38.00;;;;;;5065541;28;20041;-74
2021/01/02 09:42:59;;;;;;;5.25;0.63;;;21.30;38.00;;;;;;5051720;28;20028;-74
2021/01/02 09:45:25;;;;;;;0.38;0.38;;;21.30;37.80;;;;;;5052277;28;20021;-74
2021/01/02 09:47:50;;;;;;;0.98;0.93;;;21.40;37.80;;;;;;5035067;28;20028;-74
2021/01/02 09:50:16;;;;;;;1.13;0.43;;;21.40;37.70;;;;;;5052986;28;20041;-74
2021/01/02 09:52:41;;;;;;;1.52;0.93;;;21.50;37.60;;;;;;5085111;28;20036;-75
2021/01/02 09:55:08;;;;;;;0.75;0.75;;;21.50;37.60;;;;;;5052068;28;20052;-75
2021/01/02 09:57:33;;;;;;;1.05;0.95;;;21.60;37.60;;;;;;5049402;28;20029;-75
2021/01/02 09:59:59;;;;;;;0.00;0.00;;;21.60;37.60;;;;;;5050668;28;20024;-74
2021/01/02 10:02:24;;;;;;;0.30;0.30;;;21.60;37.50;;;;;;5052017;28;20017;-75
2021/01/02 10:04:50;;;;;;;0.32;0.32;;;21.60;37.50;;;;;;5050418;28;20044;-75
2021/01/02 10:07:17;;;;;;;0.70;0.43;;;21.60;37.40;;;;;;5052789;28;20029;-75
2021/01/02 10:09:46;;;;;;;1.95;0.57;;;21.60;37.30;;;;;;5051068;28;20119;-75
2021/01/02 10:12:12;;;;;;;0.40;0.40;;;21.60;37.30;;;;;;5052466;28;20116;-75
2021/01/02 10:14:38;;;;;;;0.05;0.05;;;21.70;37.30;;;;;;5034661;28;20041;-74
2021/01/02 10:17:04;;;;;;;0.70;0.70;;;21.70;37.20;;;;;;5084491;28;20036;-74
2021/01/02 10:19:32;;;;;;;0.47;0.47;;;21.70;37.30;;;;;;5060855;28;20123;-74
2021/01/02 10:22:01;;;;;;;0.13;0.13;;;21.60;37.20;;;;;;5056291;28;20037;-74
2021/01/02 10:24:27;;;;;;;1.17;0.30;;;21.60;37.20;;;;;;5051530;28;20527;-74
2021/01/02 10:26:52;;;;;;;2.60;0.75;;;21.60;37.20;;;;;;5051443;28;20056;-74
2021/01/02 10:29:18;;;;;;;6.10;1.33;;;21.60;37.20;;;;;;5051050;28;20048;-74
2021/01/02 10:31:44;;;;;;;0.73;0.40;;;21.60;37.20;;;;;;5052478;28;20377;-74
2021/01/02 10:34:10;;;;;;;0.00;0.00;;;21.60;37.20;;;;;;5084309;28;20037;-74
2021/01/02 10:36:35;;;;;;;4.50;0.30;;;21.60;37.30;;;;;;5051359;28;20017;-74
2021/01/02 10:39:01;;;;;;;3.72;1.02;;;21.60;38.00;;;;;;5052145;28;20060;-74
2021/01/02 10:41:26;;;;;;;0.88;0.65;;;21.60;37.30;;;;;;5051715;28;20062;-74
2021/01/02 10:43:52;;;;;;;1.88;0.45;;;21.60;37.40;;;;;;5050238;28;20039;-74
2021/01/02 10:46:17;;;;;;;0.30;0.30;;;21.60;37.40;;;;;;5052216;28;20025;-69
2021/01/02 10:48:43;;;;;;;1.63;0.35;;;21.60;37.70;;;;;;5052284;28;20029;-69
2021/01/02 10:51:13;;;;;;;1.50;1.40;;;21.60;38.10;;;;;;5051341;28;20024;-69
2021/01/02 10:53:39;;;;;;;2.40;0.47;;;21.60;38.30;;;;;;5051185;28;20159;-69
2021/01/02 10:56:11;;;;;;;1.33;1.23;;;21.60;38.20;;;;;;5047428;28;20104;-69
2021/01/02 10:58:36;;;;;;;0.30;0.30;;;21.60;38.10;;;;;;5051763;28;20118;-74
2021/01/02 11:01:04;;;;;;;0.20;0.20;;;21.70;38.10;;;;;;5078596;28;20057;-75
2021/01/02 11:03:30;;;;;;;1.15;0.52;;;21.70;37.90;;;;;;5049713;28;20607;-74
2021/01/02 11:05:57;;;;;;;0.75;0.28;;;21.70;38.50;;;;;;5049834;28;20512;-74
2021/01/02 11:11:44;;;;;;;7.22;1.05;;;21.80;37.50;;;;;;5047009;28;20108;-74
2021/01/02 11:14:10;;;;;;;0.32;0.32;;;21.80;37.40;;;;;;5050472;28;20164;-74
2021/01/02 11:16:37;;;;;;;0.57;0.57;;;21.90;37.40;;;;;;5050513;28;20025;-74
2021/01/02 11:19:08;;;;;;;2.92;0.65;;;21.90;37.20;;;;;;5090034;28;20025;-74
2021/01/02 11:21:33;;;;;;;0.22;0.22;;;21.90;37.20;;;;;;5031008;28;20069;-75
2021/01/02 11:23:59;;;;;;;1.48;0.50;;;21.90;37.10;;;;;;5039327;28;20460;-74
2021/01/02 11:26:25;;;;;;;0.80;0.63;;;22.00;37.70;;;;;;5051172;28;20393;-75
2021/01/02 11:28:50;;;;;;;0.30;0.20;;;22.00;37.00;;;;;;5050561;28;20396;-69
2021/01/02 11:31:37;;;;;;;0.20;0.20;;;22.00;37.00;;;;;;5054966;28;20462;-74
2021/01/02 11:34:03;;;;;;;0.93;0.22;;;22.00;36.90;;;;;;5054126;28;20027;-74
2021/01/02 11:36:29;;;;;;;0.75;0.22;;;22.00;37.60;;;;;;5034440;28;20461;-74
2021/01/02 11:38:54;;;;;;;0.55;0.52;;;21.90;36.90;;;;;;5049573;28;20427;-73
2021/01/02 11:41:28;;;;;;;1.17;0.35;;;22.00;37.00;;;;;;5025094;28;20102;-75
2021/01/02 11:43:54;;;;;;;1.00;0.57;;;21.90;36.90;;;;;;5038040;28;20484;-74
2021/01/02 11:46:31;;;;;;;0.65;0.65;;;21.90;36.90;;;;;;5083899;28;20044;-74
2021/01/02 11:48:57;;;;;;;0.88;0.25;;;21.90;37.00;;;;;;5049500;28;20017;-74
2021/01/02 11:51:23;;;;;;;0.25;0.25;;;21.90;37.00;;;;;;5049023;28;20477;-73
2021/01/02 11:53:49;;;;;;;1.38;0.28;;;21.90;37.10;;;;;;5048923;28;20570;-74
2021/01/02 11:56:17;;;;;;;0.88;0.88;;;21.90;37.10;;;;;;5050500;28;20110;-74
2021/01/02 11:58:42;;;;;;;1.08;0.30;;;21.90;37.20;;;;;;5032909;28;20037;-68
2021/01/02 12:01:08;;;;;;;0.30;0.30;;;21.90;37.20;;;;;;5033072;28;20044;-68
2021/01/02 12:03:33;;;;;;;0.55;0.55;;;21.90;37.20;;;;;;5050371;28;20021;-68
2021/01/02 12:05:59;;;;;;;1.55;0.57;;;21.80;37.20;;;;;;5082614;28;20065;-68
2021/01/02 12:08:24;;;;;;;0.35;0.35;;;21.80;37.20;;;;;;5050690;28;20025;-68
2021/01/02 12:10:50;;;;;;;0.38;0.25;;;21.80;37.20;;;;;;5050934;28;20044;-68
2021/01/02 12:13:15;;;;;;;1.70;0.32;;;21.80;37.30;;;;;;5051172;28;20031;-68
2021/01/02 12:15:41;;;;;;;1.27;0.45;;;21.80;37.30;;;;;;5051016;28;20497;-68
2021/01/02 12:18:06;;;;;;;2.03;0.32;;;21.80;37.30;;;;;;5051829;28;20439;-68
2021/01/02 12:20:32;;;;;;;0.20;0.20;;;21.80;37.30;;;;;;5055180;28;20488;-68
2021/01/02 12:22:58;;;;;;;0.60;0.55;;;21.80;37.30;;;;;;5054169;28;20048;-68
2021/01/02 12:25:24;;;;;;;0.15;0.10;;;21.80;37.40;;;;;;5054111;28;20465;-68
2021/01/02 12:27:50;;;;;;;0.35;0.35;;;21.80;37.40;;;;;;5038685;28;20114;-68
2021/01/02 12:30:34;;;;;;;0.28;0.28;;;21.80;37.40;;;;;;5054620;28;20116;-69
2021/01/02 12:33:00;;;;;;;0.32;0.32;;;21.80;37.40;;;;;;5055035;28;20025;-68
2021/01/02 12:35:27;;;;;;;0.00;0.00;;;21.80;37.40;;;;;;5054759;28;20424;-68
2021/01/02 12:37:53;;;;;;;5.93;0.80;;;21.80;37.50;;;;;;5036362;28;20458;-68
2021/01/02 12:40:18;;;;;;;0.75;0.75;;;21.80;37.40;;;;;;5087207;28;20025;-69
2021/01/02 12:42:44;;;;;;;0.43;0.43;;;21.80;37.50;;;;;;5052854;28;20122;-68
2021/01/02 12:45:10;;;;;;;0.13;0.13;;;21.80;37.50;;;;;;5052951;28;20029;-69
2021/01/02 12:47:35;;;;;;;0.40;0.30;;;21.80;37.50;;;;;;5053026;28;20075;-68
2021/01/02 12:50:01;;;;;;;2.88;0.75;;;21.80;37.50;;;;;;5054680;28;20033;-68
2021/01/02 12:52:30;;;;;;;0.22;0.22;;;21.80;38.20;;;;;;5069579;28;20516;-68
2021/01/02 12:54:56;;;;;;;0.10;0.10;;;21.80;37.50;;;;;;5052302;28;20041;-68
2021/01/02 12:57:22;;;;;;;0.52;0.45;;;21.80;37.60;;;;;;5052035;28;20047;-68
2021/01/02 12:59:52;;;;;;;1.20;0.70;;;21.80;37.60;;;;;;5051320;28;20029;-68
2021/01/02 13:02:17;;;;;;;1.02;0.25;;;21.80;37.60;;;;;;5068564;28;20064;-68
2021/01/02 13:04:46;;;;;;;0.45;0.30;;;21.80;37.60;;;;;;5051124;28;20037;-68
2021/01/02 13:07:12;;;;;;;0.05;0.05;;;21.80;37.60;;;;;;5051600;28;20040;-68
2021/01/02 13:09:38;;;;;;;0.75;0.57;;;21.80;37.60;;;;;;5087003;28;20056;-68
2021/01/02 13:12:04;;;;;;;0.77;0.45;;;21.80;37.50;;;;;;5054443;28;20032;-68
2021/01/02 13:14:30;;;;;;;0.10;0.10;;;21.80;38.20;;;;;;5051144;28;20451;-68
2021/01/02 13:16:59;;;;;;;0.88;0.25;;;21.80;37.60;;;;;;5052809;28;20378;-68